sensor_id;sensor_type;location;lat;lon;timestamp;P1;durP1;ratioP1;P2;durP2;ratioP2
80510;SDS011;69840;53.040;8.600;2023-07-31T00:03:43;9.68;;;1.88;;
80510;SDS011;69840;53.040;8.600;2023-07-31T00:07:56;4.70;;;1.58;;
80510;SDS011;69840;53.040;8.600;2023-07-31T00:12:09;3.03;;;1.23;;
80510;SDS011;69840;53.040;8.600;2023-07-31T00:16:21;6.47;;;1.27;;
80510;SDS011;69840;53.040;8.600;2023-07-31T00:20:34;3.08;;;1.38;;
80510;SDS011;69840;53.040;8.600;2023-07-31T00:24:46;2.22;;;0.90;;
80510;SDS011;69840;53.040;8.600;2023-07-31T00:28:59;5.00;;;2.45;;
80510;SDS011;69840;53.040;8.600;2023-07-31T00:33:11;6.50;;;1.70;;
80510;SDS011;69840;53.040;8.600;2023-07-31T00:37:24;1.60;;;1.10;;
80510;SDS011;69840;53.040;8.600;2023-07-31T00:41:36;2.60;;;1.35;;
80510;SDS011;69840;53.040;8.600;2023-07-31T00:45:49;3.40;;;1.17;;
80510;SDS011;69840;53.040;8.600;2023-07-31T00:50:02;2.22;;;1.27;;
80510;SDS011;69840;53.040;8.600;2023-07-31T00:54:16;1.92;;;1.00;;
80510;SDS011;69840;53.040;8.600;2023-07-31T00:58:29;2.63;;;1.38;;
80510;SDS011;69840;53.040;8.600;2023-07-31T01:02:42;2.53;;;1.63;;
80510;SDS011;69840;53.040;8.600;2023-07-31T01:07:05;2.92;;;1.13;;
80510;SDS011;69840;53.040;8.600;2023-07-31T01:11:37;4.85;;;1.08;;
80510;SDS011;69840;53.040;8.600;2023-07-31T01:20:11;2.42;;;1.13;;
80510;SDS011;69840;53.040;8.600;2023-07-31T01:24:36;5.25;;;1.50;;
80510;SDS011;69840;53.040;8.600;2023-07-31T01:33:33;1.35;;;0.90;;
80510;SDS011;69840;53.040;8.600;2023-07-31T01:37:48;3.45;;;1.15;;
80510;SDS011;69840;53.040;8.600;2023-07-31T01:42:01;1.92;;;1.42;;
80510;SDS011;69840;53.040;8.600;2023-07-31T01:46:13;3.10;;;1.42;;
80510;SDS011;69840;53.040;8.600;2023-07-31T01:50:26;2.28;;;1.40;;
80510;SDS011;69840;53.040;8.600;2023-07-31T01:54:38;1.60;;;1.05;;
80510;SDS011;69840;53.040;8.600;2023-07-31T01:58:51;2.95;;;1.27;;
80510;SDS011;69840;53.040;8.600;2023-07-31T02:03:03;2.15;;;1.33;;
80510;SDS011;69840;53.040;8.600;2023-07-31T02:07:16;3.25;;;1.30;;
80510;SDS011;69840;53.040;8.600;2023-07-31T02:11:28;2.72;;;1.05;;
80510;SDS011;69840;53.040;8.600;2023-07-31T02:15:41;2.22;;;1.45;;
80510;SDS011;69840;53.040;8.600;2023-07-31T02:19:54;5.03;;;1.50;;
80510;SDS011;69840;53.040;8.600;2023-07-31T02:24:06;2.92;;;1.73;;
80510;SDS011;69840;53.040;8.600;2023-07-31T02:28:19;4.05;;;1.35;;
80510;SDS011;69840;53.040;8.600;2023-07-31T02:32:31;2.83;;;1.58;;
80510;SDS011;69840;53.040;8.600;2023-07-31T02:36:44;4.03;;;1.85;;
80510;SDS011;69840;53.040;8.600;2023-07-31T02:40:56;6.22;;;1.75;;
80510;SDS011;69840;53.040;8.600;2023-07-31T02:45:09;4.38;;;1.40;;
80510;SDS011;69840;53.040;8.600;2023-07-31T02:49:22;5.95;;;1.83;;
80510;SDS011;69840;53.040;8.600;2023-07-31T02:53:34;3.65;;;2.15;;
80510;SDS011;69840;53.040;8.600;2023-07-31T02:57:47;3.08;;;1.25;;
80510;SDS011;69840;53.040;8.600;2023-07-31T03:01:59;5.15;;;2.15;;
80510;SDS011;69840;53.040;8.600;2023-07-31T03:06:12;3.28;;;2.22;;
80510;SDS011;69840;53.040;8.600;2023-07-31T03:10:24;3.92;;;2.05;;
80510;SDS011;69840;53.040;8.600;2023-07-31T03:14:37;3.58;;;1.58;;
80510;SDS011;69840;53.040;8.600;2023-07-31T03:18:50;4.05;;;2.10;;
80510;SDS011;69840;53.040;8.600;2023-07-31T03:23:02;4.90;;;2.00;;
80510;SDS011;69840;53.040;8.600;2023-07-31T03:27:15;5.38;;;2.72;;
80510;SDS011;69840;53.040;8.600;2023-07-31T03:31:28;6.45;;;2.72;;
80510;SDS011;69840;53.040;8.600;2023-07-31T03:35:40;2.97;;;2.28;;
80510;SDS011;69840;53.040;8.600;2023-07-31T03:39:53;4.00;;;2.20;;
80510;SDS011;69840;53.040;8.600;2023-07-31T03:44:05;6.15;;;2.35;;
80510;SDS011;69840;53.040;8.600;2023-07-31T03:48:18;3.80;;;1.67;;
80510;SDS011;69840;53.040;8.600;2023-07-31T03:52:30;4.53;;;2.25;;
80510;SDS011;69840;53.040;8.600;2023-07-31T03:56:43;4.28;;;2.65;;
80510;SDS011;69840;53.040;8.600;2023-07-31T04:00:55;6.70;;;2.60;;
80510;SDS011;69840;53.040;8.600;2023-07-31T04:05:08;6.68;;;2.63;;
80510;SDS011;69840;53.040;8.600;2023-07-31T04:09:20;3.08;;;1.98;;
80510;SDS011;69840;53.040;8.600;2023-07-31T04:13:33;3.00;;;1.95;;
80510;SDS011;69840;53.040;8.600;2023-07-31T04:17:45;4.15;;;1.98;;
80510;SDS011;69840;53.040;8.600;2023-07-31T04:21:58;4.63;;;2.03;;
80510;SDS011;69840;53.040;8.600;2023-07-31T04:26:10;4.25;;;1.70;;
80510;SDS011;69840;53.040;8.600;2023-07-31T04:30:23;3.42;;;2.05;;
80510;SDS011;69840;53.040;8.600;2023-07-31T04:34:36;8.02;;;1.85;;
80510;SDS011;69840;53.040;8.600;2023-07-31T04:38:49;2.78;;;1.52;;
80510;SDS011;69840;53.040;8.600;2023-07-31T04:43:01;2.75;;;1.55;;
80510;SDS011;69840;53.040;8.600;2023-07-31T04:47:14;4.22;;;2.45;;
80510;SDS011;69840;53.040;8.600;2023-07-31T04:51:26;4.50;;;2.60;;
80510;SDS011;69840;53.040;8.600;2023-07-31T04:55:39;5.35;;;2.20;;
80510;SDS011;69840;53.040;8.600;2023-07-31T04:59:51;2.08;;;1.30;;
80510;SDS011;69840;53.040;8.600;2023-07-31T05:04:04;5.22;;;1.52;;
80510;SDS011;69840;53.040;8.600;2023-07-31T05:08:16;3.28;;;1.27;;
80510;SDS011;69840;53.040;8.600;2023-07-31T05:12:29;2.28;;;1.38;;
80510;SDS011;69840;53.040;8.600;2023-07-31T05:16:41;1.98;;;1.25;;
80510;SDS011;69840;53.040;8.600;2023-07-31T05:20:54;2.25;;;1.25;;
80510;SDS011;69840;53.040;8.600;2023-07-31T05:25:06;2.50;;;1.25;;
80510;SDS011;69840;53.040;8.600;2023-07-31T05:29:19;1.88;;;1.10;;
80510;SDS011;69840;53.040;8.600;2023-07-31T05:33:32;1.60;;;0.75;;
80510;SDS011;69840;53.040;8.600;2023-07-31T05:37:44;2.03;;;0.88;;
80510;SDS011;69840;53.040;8.600;2023-07-31T05:41:57;1.40;;;0.73;;
80510;SDS011;69840;53.040;8.600;2023-07-31T05:46:09;2.95;;;1.50;;
80510;SDS011;69840;53.040;8.600;2023-07-31T05:50:22;1.83;;;1.35;;
80510;SDS011;69840;53.040;8.600;2023-07-31T05:54:34;2.45;;;0.95;;
80510;SDS011;69840;53.040;8.600;2023-07-31T05:58:47;3.05;;;1.50;;
80510;SDS011;69840;53.040;8.600;2023-07-31T06:02:59;1.90;;;1.08;;
80510;SDS011;69840;53.040;8.600;2023-07-31T06:07:12;2.42;;;1.50;;
80510;SDS011;69840;53.040;8.600;2023-07-31T06:11:24;1.98;;;1.13;;
80510;SDS011;69840;53.040;8.600;2023-07-31T06:15:37;4.20;;;1.35;;
80510;SDS011;69840;53.040;8.600;2023-07-31T06:19:50;3.30;;;1.52;;
80510;SDS011;69840;53.040;8.600;2023-07-31T06:24:03;4.85;;;1.63;;
80510;SDS011;69840;53.040;8.600;2023-07-31T06:28:18;3.40;;;1.35;;
80510;SDS011;69840;53.040;8.600;2023-07-31T06:32:31;3.35;;;1.20;;
80510;SDS011;69840;53.040;8.600;2023-07-31T06:36:43;1.33;;;1.08;;
80510;SDS011;69840;53.040;8.600;2023-07-31T06:40:56;1.65;;;1.38;;
80510;SDS011;69840;53.040;8.600;2023-07-31T06:45:08;1.15;;;0.77;;
80510;SDS011;69840;53.040;8.600;2023-07-31T06:49:22;1.10;;;0.75;;
80510;SDS011;69840;53.040;8.600;2023-07-31T06:53:34;1.48;;;0.90;;
80510;SDS011;69840;53.040;8.600;2023-07-31T06:57:51;1.30;;;0.82;;
80510;SDS011;69840;53.040;8.600;2023-07-31T07:02:05;1.80;;;0.98;;
80510;SDS011;69840;53.040;8.600;2023-07-31T07:06:18;0.82;;;0.55;;
80510;SDS011;69840;53.040;8.600;2023-07-31T07:10:30;1.63;;;1.00;;
80510;SDS011;69840;53.040;8.600;2023-07-31T07:14:42;3.45;;;1.38;;
80510;SDS011;69840;53.040;8.600;2023-07-31T07:18:55;2.10;;;1.52;;
80510;SDS011;69840;53.040;8.600;2023-07-31T07:23:13;3.35;;;1.60;;
80510;SDS011;69840;53.040;8.600;2023-07-31T07:27:26;6.03;;;2.67;;
80510;SDS011;69840;53.040;8.600;2023-07-31T07:31:38;4.57;;;2.70;;
80510;SDS011;69840;53.040;8.600;2023-07-31T07:35:51;7.00;;;2.33;;
80510;SDS011;69840;53.040;8.600;2023-07-31T07:40:03;7.47;;;2.97;;
80510;SDS011;69840;53.040;8.600;2023-07-31T07:44:16;9.13;;;2.83;;
80510;SDS011;69840;53.040;8.600;2023-07-31T07:48:29;9.55;;;4.10;;
80510;SDS011;69840;53.040;8.600;2023-07-31T07:52:41;13.63;;;4.60;;
80510;SDS011;69840;53.040;8.600;2023-07-31T07:56:54;11.98;;;5.03;;
80510;SDS011;69840;53.040;8.600;2023-07-31T08:01:06;15.18;;;5.47;;
80510;SDS011;69840;53.040;8.600;2023-07-31T08:05:19;12.05;;;4.55;;
80510;SDS011;69840;53.040;8.600;2023-07-31T08:09:32;13.52;;;5.53;;
80510;SDS011;69840;53.040;8.600;2023-07-31T08:13:44;11.27;;;4.88;;
80510;SDS011;69840;53.040;8.600;2023-07-31T08:17:57;13.52;;;5.30;;
80510;SDS011;69840;53.040;8.600;2023-07-31T08:22:10;14.63;;;5.35;;
80510;SDS011;69840;53.040;8.600;2023-07-31T08:26:22;11.25;;;4.82;;
80510;SDS011;69840;53.040;8.600;2023-07-31T08:30:35;13.10;;;5.13;;
80510;SDS011;69840;53.040;8.600;2023-07-31T08:34:47;13.73;;;4.32;;
80510;SDS011;69840;53.040;8.600;2023-07-31T08:39:00;12.35;;;4.35;;
80510;SDS011;69840;53.040;8.600;2023-07-31T08:43:12;17.77;;;5.47;;
80510;SDS011;69840;53.040;8.600;2023-07-31T08:47:25;16.40;;;5.65;;
80510;SDS011;69840;53.040;8.600;2023-07-31T08:51:38;14.43;;;4.90;;
80510;SDS011;69840;53.040;8.600;2023-07-31T08:55:53;17.67;;;4.72;;
80510;SDS011;69840;53.040;8.600;2023-07-31T09:00:09;8.43;;;3.67;;
80510;SDS011;69840;53.040;8.600;2023-07-31T09:04:23;6.93;;;3.10;;
80510;SDS011;69840;53.040;8.600;2023-07-31T09:08:36;8.00;;;3.80;;
80510;SDS011;69840;53.040;8.600;2023-07-31T09:12:53;7.85;;;3.50;;
80510;SDS011;69840;53.040;8.600;2023-07-31T09:17:07;7.90;;;2.92;;
80510;SDS011;69840;53.040;8.600;2023-07-31T09:21:20;9.75;;;2.65;;
80510;SDS011;69840;53.040;8.600;2023-07-31T09:25:32;6.55;;;2.88;;
80510;SDS011;69840;53.040;8.600;2023-07-31T09:29:45;7.35;;;3.20;;
80510;SDS011;69840;53.040;8.600;2023-07-31T09:34:11;5.55;;;3.55;;
80510;SDS011;69840;53.040;8.600;2023-07-31T09:38:24;6.65;;;2.53;;
80510;SDS011;69840;53.040;8.600;2023-07-31T09:42:36;6.45;;;2.97;;
80510;SDS011;69840;53.040;8.600;2023-07-31T09:46:49;6.75;;;2.75;;
80510;SDS011;69840;53.040;8.600;2023-07-31T09:51:04;4.20;;;1.85;;
80510;SDS011;69840;53.040;8.600;2023-07-31T09:55:17;9.73;;;2.83;;
80510;SDS011;69840;53.040;8.600;2023-07-31T09:59:30;4.95;;;2.13;;
80510;SDS011;69840;53.040;8.600;2023-07-31T10:03:43;6.68;;;2.47;;
80510;SDS011;69840;53.040;8.600;2023-07-31T10:07:57;5.75;;;2.15;;
80510;SDS011;69840;53.040;8.600;2023-07-31T10:12:10;3.58;;;1.58;;
80510;SDS011;69840;53.040;8.600;2023-07-31T10:16:26;2.70;;;1.38;;
80510;SDS011;69840;53.040;8.600;2023-07-31T10:20:39;3.92;;;1.90;;
80510;SDS011;69840;53.040;8.600;2023-07-31T10:24:52;4.70;;;2.28;;
80510;SDS011;69840;53.040;8.600;2023-07-31T10:29:07;3.08;;;1.17;;
80510;SDS011;69840;53.040;8.600;2023-07-31T10:33:20;2.60;;;1.42;;
80510;SDS011;69840;53.040;8.600;2023-07-31T10:37:37;2.17;;;1.23;;
80510;SDS011;69840;53.040;8.600;2023-07-31T10:41:53;4.13;;;1.20;;
80510;SDS011;69840;53.040;8.600;2023-07-31T10:46:07;3.80;;;1.23;;
80510;SDS011;69840;53.040;8.600;2023-07-31T10:50:26;1.50;;;1.13;;
80510;SDS011;69840;53.040;8.600;2023-07-31T10:54:39;1.10;;;0.70;;
80510;SDS011;69840;53.040;8.600;2023-07-31T10:59:00;1.40;;;0.73;;
80510;SDS011;69840;53.040;8.600;2023-07-31T11:03:17;1.42;;;0.55;;
80510;SDS011;69840;53.040;8.600;2023-07-31T11:07:46;1.40;;;0.88;;
80510;SDS011;69840;53.040;8.600;2023-07-31T11:12:00;1.40;;;0.60;;
80510;SDS011;69840;53.040;8.600;2023-07-31T11:16:13;1.13;;;0.73;;
80510;SDS011;69840;53.040;8.600;2023-07-31T11:20:26;0.68;;;0.45;;
80510;SDS011;69840;53.040;8.600;2023-07-31T11:24:39;0.60;;;0.57;;
80510;SDS011;69840;53.040;8.600;2023-07-31T11:28:52;0.82;;;0.45;;
80510;SDS011;69840;53.040;8.600;2023-07-31T11:33:05;0.68;;;0.52;;
80510;SDS011;69840;53.040;8.600;2023-07-31T11:37:18;0.60;;;0.50;;
80510;SDS011;69840;53.040;8.600;2023-07-31T11:41:31;1.80;;;0.82;;
80510;SDS011;69840;53.040;8.600;2023-07-31T11:45:47;0.73;;;0.50;;
80510;SDS011;69840;53.040;8.600;2023-07-31T11:50:01;1.10;;;0.98;;
80510;SDS011;69840;53.040;8.600;2023-07-31T11:54:17;1.15;;;0.73;;
80510;SDS011;69840;53.040;8.600;2023-07-31T11:58:30;0.85;;;0.85;;
80510;SDS011;69840;53.040;8.600;2023-07-31T12:02:45;1.05;;;0.90;;
80510;SDS011;69840;53.040;8.600;2023-07-31T12:07:00;0.95;;;0.70;;
80510;SDS011;69840;53.040;8.600;2023-07-31T12:11:13;1.00;;;0.77;;
80510;SDS011;69840;53.040;8.600;2023-07-31T12:15:29;1.00;;;0.75;;
80510;SDS011;69840;53.040;8.600;2023-07-31T12:19:49;0.93;;;0.65;;
80510;SDS011;69840;53.040;8.600;2023-07-31T12:24:01;1.90;;;0.90;;
80510;SDS011;69840;53.040;8.600;2023-07-31T12:28:14;0.73;;;0.52;;
80510;SDS011;69840;53.040;8.600;2023-07-31T12:32:26;1.20;;;0.82;;
80510;SDS011;69840;53.040;8.600;2023-07-31T12:36:42;1.38;;;0.93;;
80510;SDS011;69840;53.040;8.600;2023-07-31T12:40:55;1.10;;;0.85;;
80510;SDS011;69840;53.040;8.600;2023-07-31T12:45:07;1.55;;;1.02;;
80510;SDS011;69840;53.040;8.600;2023-07-31T12:49:20;1.00;;;0.80;;
80510;SDS011;69840;53.040;8.600;2023-07-31T12:53:33;0.73;;;0.52;;
80510;SDS011;69840;53.040;8.600;2023-07-31T12:57:46;1.30;;;0.63;;
80510;SDS011;69840;53.040;8.600;2023-07-31T13:01:59;1.00;;;0.65;;
80510;SDS011;69840;53.040;8.600;2023-07-31T13:06:11;1.35;;;1.00;;
80510;SDS011;69840;53.040;8.600;2023-07-31T13:10:24;1.20;;;0.57;;
80510;SDS011;69840;53.040;8.600;2023-07-31T13:14:36;1.52;;;1.20;;
80510;SDS011;69840;53.040;8.600;2023-07-31T13:18:49;1.20;;;0.82;;
80510;SDS011;69840;53.040;8.600;2023-07-31T13:23:01;1.50;;;1.23;;
80510;SDS011;69840;53.040;8.600;2023-07-31T13:27:15;2.30;;;1.13;;
80510;SDS011;69840;53.040;8.600;2023-07-31T13:31:27;1.77;;;1.10;;
80510;SDS011;69840;53.040;8.600;2023-07-31T13:35:40;2.70;;;1.52;;
80510;SDS011;69840;53.040;8.600;2023-07-31T13:39:52;4.53;;;1.48;;
80510;SDS011;69840;53.040;8.600;2023-07-31T13:44:05;3.10;;;1.23;;
80510;SDS011;69840;53.040;8.600;2023-07-31T13:48:17;2.95;;;1.48;;
80510;SDS011;69840;53.040;8.600;2023-07-31T13:52:30;3.13;;;1.88;;
80510;SDS011;69840;53.040;8.600;2023-07-31T13:56:42;3.08;;;1.88;;
80510;SDS011;69840;53.040;8.600;2023-07-31T14:00:55;3.15;;;2.03;;
80510;SDS011;69840;53.040;8.600;2023-07-31T14:05:08;5.38;;;2.47;;
80510;SDS011;69840;53.040;8.600;2023-07-31T14:09:20;5.53;;;2.20;;
80510;SDS011;69840;53.040;8.600;2023-07-31T14:13:33;4.07;;;2.45;;
80510;SDS011;69840;53.040;8.600;2023-07-31T14:17:46;6.05;;;2.38;;
80510;SDS011;69840;53.040;8.600;2023-07-31T14:21:59;6.30;;;2.58;;
80510;SDS011;69840;53.040;8.600;2023-07-31T14:26:20;7.63;;;3.10;;
80510;SDS011;69840;53.040;8.600;2023-07-31T14:30:33;6.45;;;2.95;;
80510;SDS011;69840;53.040;8.600;2023-07-31T14:34:46;4.15;;;2.80;;
80510;SDS011;69840;53.040;8.600;2023-07-31T14:38:58;7.20;;;2.85;;
80510;SDS011;69840;53.040;8.600;2023-07-31T14:43:11;5.13;;;2.97;;
80510;SDS011;69840;53.040;8.600;2023-07-31T14:47:23;4.93;;;2.90;;
80510;SDS011;69840;53.040;8.600;2023-07-31T14:51:36;6.10;;;3.58;;
80510;SDS011;69840;53.040;8.600;2023-07-31T14:55:48;5.53;;;3.35;;
80510;SDS011;69840;53.040;8.600;2023-07-31T15:00:01;6.70;;;3.78;;
80510;SDS011;69840;53.040;8.600;2023-07-31T15:04:13;5.45;;;3.40;;
80510;SDS011;69840;53.040;8.600;2023-07-31T15:08:26;6.80;;;3.58;;
80510;SDS011;69840;53.040;8.600;2023-07-31T15:12:40;6.32;;;3.78;;
80510;SDS011;69840;53.040;8.600;2023-07-31T15:16:52;6.68;;;4.10;;
80510;SDS011;69840;53.040;8.600;2023-07-31T15:21:05;8.63;;;4.00;;
80510;SDS011;69840;53.040;8.600;2023-07-31T15:25:18;6.32;;;3.53;;
80510;SDS011;69840;53.040;8.600;2023-07-31T15:29:30;7.78;;;4.28;;
80510;SDS011;69840;53.040;8.600;2023-07-31T15:33:43;7.93;;;4.45;;
80510;SDS011;69840;53.040;8.600;2023-07-31T15:37:56;10.00;;;4.47;;
80510;SDS011;69840;53.040;8.600;2023-07-31T15:42:08;5.53;;;3.53;;
80510;SDS011;69840;53.040;8.600;2023-07-31T15:46:21;8.77;;;4.05;;
80510;SDS011;69840;53.040;8.600;2023-07-31T15:50:33;6.72;;;3.78;;
80510;SDS011;69840;53.040;8.600;2023-07-31T15:54:46;7.93;;;3.17;;
80510;SDS011;69840;53.040;8.600;2023-07-31T15:58:59;4.22;;;2.83;;
80510;SDS011;69840;53.040;8.600;2023-07-31T16:03:12;4.68;;;3.05;;
80510;SDS011;69840;53.040;8.600;2023-07-31T16:07:24;5.10;;;3.13;;
80510;SDS011;69840;53.040;8.600;2023-07-31T16:11:37;3.10;;;2.70;;
80510;SDS011;69840;53.040;8.600;2023-07-31T16:15:50;4.53;;;2.60;;
80510;SDS011;69840;53.040;8.600;2023-07-31T16:20:03;2.78;;;1.73;;
80510;SDS011;69840;53.040;8.600;2023-07-31T16:24:16;3.67;;;2.22;;
80510;SDS011;69840;53.040;8.600;2023-07-31T16:28:28;5.35;;;2.33;;
80510;SDS011;69840;53.040;8.600;2023-07-31T16:32:41;5.18;;;2.47;;
80510;SDS011;69840;53.040;8.600;2023-07-31T16:36:53;6.47;;;2.30;;
80510;SDS011;69840;53.040;8.600;2023-07-31T16:41:06;4.57;;;2.55;;
80510;SDS011;69840;53.040;8.600;2023-07-31T16:45:19;5.65;;;2.33;;
80510;SDS011;69840;53.040;8.600;2023-07-31T16:49:31;5.05;;;2.42;;
80510;SDS011;69840;53.040;8.600;2023-07-31T16:53:44;4.18;;;2.85;;
80510;SDS011;69840;53.040;8.600;2023-07-31T16:57:56;3.80;;;2.20;;
80510;SDS011;69840;53.040;8.600;2023-07-31T17:02:09;2.97;;;2.20;;
80510;SDS011;69840;53.040;8.600;2023-07-31T17:06:22;4.43;;;2.88;;
80510;SDS011;69840;53.040;8.600;2023-07-31T17:10:35;5.00;;;2.42;;
80510;SDS011;69840;53.040;8.600;2023-07-31T17:14:47;7.55;;;4.00;;
80510;SDS011;69840;53.040;8.600;2023-07-31T17:19:01;4.53;;;3.13;;
80510;SDS011;69840;53.040;8.600;2023-07-31T17:23:13;7.88;;;3.20;;
80510;SDS011;69840;53.040;8.600;2023-07-31T17:27:26;6.35;;;3.33;;
80510;SDS011;69840;53.040;8.600;2023-07-31T17:31:39;7.30;;;3.85;;
80510;SDS011;69840;53.040;8.600;2023-07-31T17:35:52;6.78;;;3.70;;
80510;SDS011;69840;53.040;8.600;2023-07-31T17:40:04;7.90;;;4.10;;
80510;SDS011;69840;53.040;8.600;2023-07-31T17:44:17;12.30;;;4.40;;
80510;SDS011;69840;53.040;8.600;2023-07-31T17:48:31;12.85;;;5.20;;
80510;SDS011;69840;53.040;8.600;2023-07-31T17:52:43;6.45;;;3.78;;
80510;SDS011;69840;53.040;8.600;2023-07-31T17:56:56;10.10;;;5.03;;
80510;SDS011;69840;53.040;8.600;2023-07-31T18:01:08;9.23;;;3.83;;
80510;SDS011;69840;53.040;8.600;2023-07-31T18:05:21;5.72;;;2.78;;
80510;SDS011;69840;53.040;8.600;2023-07-31T18:09:33;7.40;;;4.03;;
80510;SDS011;69840;53.040;8.600;2023-07-31T18:13:46;5.65;;;2.90;;
80510;SDS011;69840;53.040;8.600;2023-07-31T18:17:58;5.60;;;2.70;;
80510;SDS011;69840;53.040;8.600;2023-07-31T18:22:11;5.78;;;2.60;;
80510;SDS011;69840;53.040;8.600;2023-07-31T18:26:23;3.92;;;1.95;;
80510;SDS011;69840;53.040;8.600;2023-07-31T18:30:36;3.20;;;1.45;;
80510;SDS011;69840;53.040;8.600;2023-07-31T18:34:49;3.38;;;1.40;;
80510;SDS011;69840;53.040;8.600;2023-07-31T18:39:01;3.08;;;1.58;;
80510;SDS011;69840;53.040;8.600;2023-07-31T18:43:14;5.82;;;1.45;;
80510;SDS011;69840;53.040;8.600;2023-07-31T18:47:26;1.63;;;0.93;;
80510;SDS011;69840;53.040;8.600;2023-07-31T18:51:39;2.63;;;1.17;;
80510;SDS011;69840;53.040;8.600;2023-07-31T18:55:51;1.50;;;0.75;;
80510;SDS011;69840;53.040;8.600;2023-07-31T19:00:04;1.30;;;0.75;;
80510;SDS011;69840;53.040;8.600;2023-07-31T19:04:17;1.63;;;0.68;;
80510;SDS011;69840;53.040;8.600;2023-07-31T19:08:30;1.90;;;1.00;;
80510;SDS011;69840;53.040;8.600;2023-07-31T19:12:43;3.15;;;1.23;;
80510;SDS011;69840;53.040;8.600;2023-07-31T19:16:55;4.88;;;1.50;;
80510;SDS011;69840;53.040;8.600;2023-07-31T19:21:08;2.42;;;1.30;;
80510;SDS011;69840;53.040;8.600;2023-07-31T19:25:20;6.05;;;2.70;;
80510;SDS011;69840;53.040;8.600;2023-07-31T19:29:33;5.93;;;2.35;;
80510;SDS011;69840;53.040;8.600;2023-07-31T19:33:45;5.43;;;2.58;;
80510;SDS011;69840;53.040;8.600;2023-07-31T19:37:58;4.57;;;2.05;;
80510;SDS011;69840;53.040;8.600;2023-07-31T19:42:11;5.28;;;2.65;;
80510;SDS011;69840;53.040;8.600;2023-07-31T19:46:24;3.83;;;2.17;;
80510;SDS011;69840;53.040;8.600;2023-07-31T19:50:36;6.35;;;2.80;;
80510;SDS011;69840;53.040;8.600;2023-07-31T19:54:49;2.60;;;1.73;;
80510;SDS011;69840;53.040;8.600;2023-07-31T19:59:02;3.70;;;2.22;;
80510;SDS011;69840;53.040;8.600;2023-07-31T20:03:14;3.33;;;2.28;;
80510;SDS011;69840;53.040;8.600;2023-07-31T20:07:27;3.28;;;2.22;;
80510;SDS011;69840;53.040;8.600;2023-07-31T20:11:39;5.68;;;2.50;;
80510;SDS011;69840;53.040;8.600;2023-07-31T20:15:52;5.00;;;3.17;;
80510;SDS011;69840;53.040;8.600;2023-07-31T20:20:04;8.98;;;3.95;;
80510;SDS011;69840;53.040;8.600;2023-07-31T20:24:17;8.10;;;3.58;;
80510;SDS011;69840;53.040;8.600;2023-07-31T20:28:30;7.82;;;4.18;;
80510;SDS011;69840;53.040;8.600;2023-07-31T20:32:42;8.73;;;4.05;;
80510;SDS011;69840;53.040;8.600;2023-07-31T20:36:55;6.97;;;4.05;;
80510;SDS011;69840;53.040;8.600;2023-07-31T20:41:09;5.43;;;3.17;;
80510;SDS011;69840;53.040;8.600;2023-07-31T20:45:24;7.38;;;3.42;;
80510;SDS011;69840;53.040;8.600;2023-07-31T20:49:37;5.93;;;3.35;;
80510;SDS011;69840;53.040;8.600;2023-07-31T20:53:50;6.93;;;3.38;;
80510;SDS011;69840;53.040;8.600;2023-07-31T20:58:02;6.78;;;3.33;;
80510;SDS011;69840;53.040;8.600;2023-07-31T21:02:15;7.00;;;2.97;;
80510;SDS011;69840;53.040;8.600;2023-07-31T21:06:27;4.90;;;2.40;;
80510;SDS011;69840;53.040;8.600;2023-07-31T21:10:40;3.95;;;2.35;;
80510;SDS011;69840;53.040;8.600;2023-07-31T21:14:52;4.03;;;2.00;;
80510;SDS011;69840;53.040;8.600;2023-07-31T21:19:05;3.38;;;1.67;;
80510;SDS011;69840;53.040;8.600;2023-07-31T21:23:17;3.05;;;1.75;;
80510;SDS011;69840;53.040;8.600;2023-07-31T21:27:30;2.13;;;1.52;;
80510;SDS011;69840;53.040;8.600;2023-07-31T21:31:42;3.55;;;1.45;;
80510;SDS011;69840;53.040;8.600;2023-07-31T21:35:55;2.22;;;1.45;;
80510;SDS011;69840;53.040;8.600;2023-07-31T21:40:07;1.95;;;1.50;;
80510;SDS011;69840;53.040;8.600;2023-07-31T21:44:20;1.90;;;1.42;;
80510;SDS011;69840;53.040;8.600;2023-07-31T21:48:33;2.83;;;1.65;;
80510;SDS011;69840;53.040;8.600;2023-07-31T21:52:45;2.47;;;1.38;;
80510;SDS011;69840;53.040;8.600;2023-07-31T21:56:58;2.00;;;0.70;;
80510;SDS011;69840;53.040;8.600;2023-07-31T22:01:10;2.03;;;1.02;;
80510;SDS011;69840;53.040;8.600;2023-07-31T22:05:23;2.13;;;1.60;;
80510;SDS011;69840;53.040;8.600;2023-07-31T22:09:35;2.58;;;1.35;;
80510;SDS011;69840;53.040;8.600;2023-07-31T22:13:48;1.35;;;0.80;;
80510;SDS011;69840;53.040;8.600;2023-07-31T22:18:01;2.17;;;1.33;;
80510;SDS011;69840;53.040;8.600;2023-07-31T22:22:15;4.53;;;0.95;;
80510;SDS011;69840;53.040;8.600;2023-07-31T22:26:27;2.85;;;1.75;;
80510;SDS011;69840;53.040;8.600;2023-07-31T22:30:40;7.78;;;1.50;;
80510;SDS011;69840;53.040;8.600;2023-07-31T22:34:53;3.45;;;1.55;;
80510;SDS011;69840;53.040;8.600;2023-07-31T22:39:05;3.47;;;2.17;;
80510;SDS011;69840;53.040;8.600;2023-07-31T22:43:18;3.65;;;1.83;;
80510;SDS011;69840;53.040;8.600;2023-07-31T22:47:31;4.18;;;1.75;;
80510;SDS011;69840;53.040;8.600;2023-07-31T22:51:43;4.13;;;2.33;;
80510;SDS011;69840;53.040;8.600;2023-07-31T22:55:56;4.50;;;2.53;;
80510;SDS011;69840;53.040;8.600;2023-07-31T23:00:14;5.38;;;3.10;;
80510;SDS011;69840;53.040;8.600;2023-07-31T23:04:27;6.20;;;3.17;;
80510;SDS011;69840;53.040;8.600;2023-07-31T23:08:41;6.10;;;2.80;;
80510;SDS011;69840;53.040;8.600;2023-07-31T23:12:53;5.63;;;2.85;;
80510;SDS011;69840;53.040;8.600;2023-07-31T23:17:06;4.47;;;2.53;;
80510;SDS011;69840;53.040;8.600;2023-07-31T23:21:18;5.78;;;3.42;;
80510;SDS011;69840;53.040;8.600;2023-07-31T23:25:37;5.35;;;3.45;;
80510;SDS011;69840;53.040;8.600;2023-07-31T23:29:49;12.23;;;3.50;;
80510;SDS011;69840;53.040;8.600;2023-07-31T23:34:02;6.30;;;3.72;;
80510;SDS011;69840;53.040;8.600;2023-07-31T23:38:14;4.63;;;2.90;;
80510;SDS011;69840;53.040;8.600;2023-07-31T23:42:27;5.70;;;3.83;;
80510;SDS011;69840;53.040;8.600;2023-07-31T23:46:39;7.82;;;3.90;;
80510;SDS011;69840;53.040;8.600;2023-07-31T23:50:52;8.25;;;4.47;;
80510;SDS011;69840;53.040;8.600;2023-07-31T23:55:07;8.77;;;3.88;;
80510;SDS011;69840;53.040;8.600;2023-07-31T23:59:21;8.35;;;4.10;;
